Time;durP1;ratioP1;P1;durP2;ratioP2;P2;SDS_P1;SDS_P2;PMS_P1;PMS_P2;Temp;Humidity;BMP_temperature;BMP_pressure;BME280_temperature;BME280_humidity;BME280_pressure;Samples;Min_cycle;Max_cycle;Signal;HPM_P1;HPM_P2
2022/04/21 00:01:07;;;;;;;6.15;4.03;;;;;;;8.95;56.39;101296.13;5028692;28;20880;-68
2022/04/21 00:03:35;;;;;;;6.40;3.60;;;;;;;8.93;56.35;101297.06;5030473;28;20121;-69
2022/04/21 00:06:02;;;;;;;14.05;3.70;;;;;;;8.89;56.57;101300.63;5028656;28;20059;-69
2022/04/21 00:08:29;;;;;;;8.48;3.75;;;;;;;8.85;56.18;101297.19;5029729;28;20049;-69
2022/04/21 00:10:57;;;;;;;7.05;3.42;;;;;;;8.83;56.45;101301.59;5031116;28;20043;-70
2022/04/21 00:13:24;;;;;;;4.50;3.35;;;;;;;8.81;56.55;101300.72;5027298;28;20896;-68
2022/04/21 00:15:51;;;;;;;5.90;3.70;;;;;;;8.79;56.31;101298.13;5028728;28;20034;-68
2022/04/21 00:18:18;;;;;;;7.80;3.47;;;;;;;8.77;56.67;101299.06;5029738;28;20423;-68
2022/04/21 00:20:46;;;;;;;6.88;3.47;;;;;;;8.74;56.68;101291.22;5033102;28;20108;-69
2022/04/21 00:23:29;;;;;;;5.00;3.60;;;;;;;8.71;56.89;101292.13;5030834;28;20034;-68
2022/04/21 00:26:00;;;;;;;7.22;3.60;;;;;;;8.69;56.92;101293.91;5033326;28;20397;-69
2022/04/21 00:28:29;;;;;;;5.18;3.30;;;;;;;8.67;57.04;101293.06;5033969;28;20720;-68
2022/04/21 00:30:56;;;;;;;4.90;3.10;;;;;;;8.67;57.06;101291.31;5032027;28;20097;-68
2022/04/21 00:33:24;;;;;;;7.93;3.60;;;;;;;8.65;57.18;101285.22;5031893;28;20527;-69
2022/04/21 00:35:51;;;;;;;5.03;3.58;;;;;;;8.64;57.40;101285.25;5032858;28;20046;-68
2022/04/21 00:38:18;;;;;;;6.13;3.08;;;;;;;8.64;56.88;101285.25;5031215;28;20073;-69
2022/04/21 00:40:45;;;;;;;4.82;3.30;;;;;;;8.61;56.91;101287.91;5031669;28;20046;-69
2022/04/21 00:43:12;;;;;;;7.63;3.22;;;;;;;8.62;57.13;101289.66;5032399;28;20042;-69
2022/04/21 00:45:39;;;;;;;8.15;3.30;;;;;;;8.62;56.85;101289.66;5031631;28;20037;-66
2022/04/21 00:48:07;;;;;;;5.28;3.28;;;;;;;8.63;56.92;101292.25;5033519;28;20781;-67
2022/04/21 00:50:37;;;;;;;4.78;3.22;;;;;;;8.61;56.75;101287.91;5031541;28;20053;-66
2022/04/21 00:53:07;;;;;;;4.20;3.10;;;;;;;8.58;56.72;101285.31;5032922;28;20068;-67
2022/04/21 00:55:39;;;;;;;6.07;3.50;;;;;;;8.54;56.66;101288.00;5031351;28;20042;-68
2022/04/21 00:58:08;;;;;;;5.07;3.30;;;;;;;8.49;56.67;101289.81;5032629;28;20080;-67
2022/04/21 01:00:36;;;;;;;6.97;3.40;;;;;;;8.43;56.63;101281.13;5031076;28;20681;-69
2022/04/21 01:03:12;;;;;;;5.75;3.42;;;;;;;8.35;56.87;101284.72;5033877;28;20085;-68
2022/04/21 01:05:39;;;;;;;5.47;3.38;;;;;;;8.27;57.06;101281.34;5031344;28;20056;-69
2022/04/21 01:08:08;;;;;;;5.18;3.58;;;;;;;8.22;57.35;101276.16;5032663;28;20042;-68
2022/04/21 01:10:37;;;;;;;5.05;3.42;;;;;;;8.17;57.71;101277.13;5030431;28;20077;-69
2022/04/21 01:13:06;;;;;;;5.63;3.67;;;;;;;8.12;58.12;101278.91;5026618;28;20053;-69
2022/04/21 01:15:37;;;;;;;6.85;2.95;;;;;;;8.06;58.13;101274.59;5028116;28;20498;-68
2022/04/21 01:18:06;;;;;;;9.00;3.65;;;;;;;8.02;58.23;101272.94;5032019;28;20042;-69
2022/04/21 01:20:34;;;;;;;5.28;3.70;;;;;;;7.99;58.76;101273.81;5022669;28;20089;-69
2022/04/21 01:23:01;;;;;;;4.50;3.30;;;;;;;7.95;58.96;101272.13;5025512;28;20096;-70
2022/04/21 01:25:38;;;;;;;5.82;3.83;;;;;;;7.89;58.88;101274.81;5032254;28;20034;-69
2022/04/21 01:28:10;;;;;;;6.47;3.58;;;;;;;7.85;59.00;101281.00;5030597;28;20127;-67
2022/04/21 01:30:38;;;;;;;5.95;3.67;;;;;;;7.80;59.21;101277.56;5025047;28;20046;-68
2022/04/21 01:33:09;;;;;;;6.60;4.10;;;;;;;7.76;59.37;101279.34;5031167;28;20062;-69
2022/04/21 01:35:38;;;;;;;6.10;4.10;;;;;;;7.72;60.15;101278.53;5032959;28;20436;-68
2022/04/21 01:41:09;;;;;;;7.88;4.10;;;;;;;7.63;60.38;101269.91;5029762;28;20056;-69
2022/04/21 01:43:38;;;;;;;6.85;3.83;;;;;;;7.59;60.60;101274.28;5031191;28;20507;-69
2022/04/21 01:46:05;;;;;;;9.00;4.15;;;;;;;7.56;60.46;101272.56;5028567;28;20042;-70
2022/04/21 01:48:34;;;;;;;5.95;3.70;;;;;;;7.51;60.79;101276.13;5025833;28;20081;-69
2022/04/21 01:51:02;;;;;;;6.18;4.10;;;;;;;7.49;60.75;101267.41;5031315;28;20471;-70
2022/04/21 01:53:30;;;;;;;7.10;4.20;;;;;;;7.47;60.78;101275.28;5027558;28;20535;-70
2022/04/21 01:55:57;;;;;;;8.82;4.38;;;;;;;7.45;60.93;101266.56;5030847;28;20076;-70
2022/04/21 01:58:25;;;;;;;9.45;4.38;;;;;;;7.44;60.82;101259.56;5031645;28;20042;-70
2022/04/21 02:00:52;;;;;;;7.88;4.32;;;;;;;7.41;60.85;101255.25;5031697;28;20056;-70
2022/04/21 02:03:21;;;;;;;7.03;4.05;;;;;;;7.39;61.07;101256.16;5032513;28;20044;-69
2022/04/21 02:05:49;;;;;;;8.25;4.20;;;;;;;7.37;61.21;101260.53;5029284;28;20050;-68
2022/04/21 02:08:16;;;;;;;6.38;4.03;;;;;;;7.34;60.99;101253.56;5031566;28;20049;-68
2022/04/21 02:10:43;;;;;;;5.65;4.10;;;;;;;7.30;60.96;101259.72;5030745;28;20121;-67
2022/04/21 02:13:10;;;;;;;6.88;3.90;;;;;;;7.27;61.59;101257.16;5029438;28;20045;-68
2022/04/21 02:15:37;;;;;;;8.48;4.45;;;;;;;7.23;61.39;101256.28;5022979;28;20074;-68
2022/04/21 02:18:04;;;;;;;8.25;4.25;;;;;;;7.24;61.82;101260.66;5029998;28;20042;-68
2022/04/21 02:20:31;;;;;;;7.30;4.50;;;;;;;7.22;61.71;101259.81;5027295;28;20504;-69
2022/04/21 02:22:59;;;;;;;7.88;4.47;;;;;;;7.22;61.47;101256.31;5032414;28;20837;-68
2022/04/21 02:25:26;;;;;;;9.60;4.30;;;;;;;7.21;61.62;101257.19;5029647;28;20088;-68
2022/04/21 02:27:54;;;;;;;7.20;4.53;;;;;;;7.18;62.00;101252.84;5029615;28;20037;-68
2022/04/21 02:30:21;;;;;;;6.00;4.15;;;;;;;7.17;61.60;101251.13;5023984;28;20049;-69
2022/04/21 02:32:48;;;;;;;8.48;4.80;;;;;;;7.15;61.50;101250.25;5030921;28;20054;-68
2022/04/21 02:35:16;;;;;;;5.70;4.22;;;;;;;7.12;61.49;101248.53;5029051;28;20072;-68
2022/04/21 02:37:47;;;;;;;6.75;4.28;;;;;;;7.11;61.63;101257.28;5030012;28;20076;-68
2022/04/21 02:40:15;;;;;;;6.55;4.80;;;;;;;7.09;61.51;101253.78;5029529;28;20526;-69
2022/04/21 02:42:44;;;;;;;6.43;4.50;;;;;;;7.07;61.45;101246.84;5031374;28;20041;-68
2022/04/21 02:45:13;;;;;;;7.07;4.57;;;;;;;7.05;61.66;101251.22;5029132;28;20048;-68
2022/04/21 02:47:44;;;;;;;6.78;4.38;;;;;;;7.01;61.55;101247.75;5031613;28;20114;-70
2022/04/21 02:50:14;;;;;;;7.70;4.50;;;;;;;6.97;61.67;101251.28;5028069;28;20038;-68
2022/04/21 02:52:43;;;;;;;5.78;4.43;;;;;;;6.95;61.72;101250.44;5027612;28;20141;-68
2022/04/21 02:57:59;;;;;;;7.88;4.57;;;;;;;6.89;61.89;101242.63;5016723;28;20550;-67
2022/04/21 03:00:26;;;;;;;9.95;4.82;;;;;;;6.87;61.62;101233.94;5027916;28;20038;-68
2022/04/21 03:02:55;;;;;;;6.45;4.30;;;;;;;6.83;61.88;101243.53;5030450;28;20046;-66
2022/04/21 03:05:23;;;;;;;7.82;4.45;;;;;;;6.81;61.89;101245.31;5029539;28;20167;-67
2022/04/21 03:07:50;;;;;;;8.13;4.40;;;;;;;6.80;61.91;101246.22;5031503;28;20050;-67
2022/04/21 03:10:17;;;;;;;5.65;3.95;;;;;;;6.77;61.91;101247.06;5031213;28;20038;-69
2022/04/21 03:12:44;;;;;;;9.23;4.40;;;;;;;6.76;62.04;101249.72;5025989;28;20034;-68
2022/04/21 03:15:12;;;;;;;5.70;4.00;;;;;;;6.76;62.02;101239.25;5030607;28;20046;-68
2022/04/21 03:17:41;;;;;;;9.27;4.18;;;;;;;6.74;62.00;101241.00;5030314;28;20052;-69
2022/04/21 03:24:18;;;;;;;7.90;4.40;;;;;;;6.72;61.96;101240.13;5031441;28;20046;-68
2022/04/21 03:25:42;;;;;;;6.13;4.38;;;;;;;6.66;62.24;101243.69;5028676;28;20057;-69
2022/04/21 03:28:09;;;;;;;6.75;4.25;;;;;;;6.65;62.12;101234.94;5025551;28;20049;-68
2022/04/21 03:30:36;;;;;;;5.57;4.03;;;;;;;6.64;62.01;101234.97;5030971;28;20073;-69
2022/04/21 03:33:03;;;;;;;6.72;4.18;;;;;;;6.62;62.21;101231.50;5028348;28;20050;-70
2022/04/21 03:35:30;;;;;;;6.75;4.40;;;;;;;6.60;62.40;101236.75;5030816;28;20086;-69
2022/04/21 03:37:57;;;;;;;6.72;4.03;;;;;;;6.57;62.48;101241.13;5030456;28;20067;-67
2022/04/21 03:40:24;;;;;;;4.95;4.05;;;;;;;6.53;62.55;101243.78;5030881;28;20508;-67
2022/04/21 03:42:51;;;;;;;6.15;4.10;;;;;;;6.49;62.74;101247.28;5028716;28;20796;-67
2022/04/21 03:45:19;;;;;;;10.07;4.15;;;;;;;6.46;63.36;101249.06;5028576;28;20112;-66
2022/04/21 03:47:46;;;;;;;6.10;4.10;;;;;;;6.41;63.08;101245.63;5022032;28;20485;-68
2022/04/21 03:50:13;;;;;;;7.05;4.70;;;;;;;6.36;62.95;101245.63;5030152;28;20108;-67
2022/04/21 03:52:40;;;;;;;8.38;4.50;;;;;;;6.32;62.95;101250.00;5032181;28;20054;-68
2022/04/21 03:55:07;;;;;;;8.65;5.03;;;;;;;6.26;62.95;101251.81;5034026;28;20085;-68
2022/04/21 03:57:35;;;;;;;5.90;4.22;;;;;;;6.18;62.96;101250.09;5032185;28;20065;-68
2022/04/21 04:00:03;;;;;;;6.13;4.38;;;;;;;6.13;62.69;101253.63;5034082;28;20034;-67
2022/04/21 04:02:37;;;;;;;6.25;4.68;;;;;;;6.05;62.94;101257.16;5029572;28;22047;-67
2022/04/21 04:05:04;;;;;;;7.07;4.53;;;;;;;5.97;63.25;101265.88;5032429;28;20049;-68
2022/04/21 04:13:03;;;;;;;8.50;4.63;;;;;;;5.85;64.15;101270.28;5026415;28;20968;-67
2022/04/21 04:15:30;;;;;;;7.00;4.45;;;;;;;5.81;63.70;101267.69;5033254;28;20076;-67
2022/04/21 04:17:57;;;;;;;8.32;4.55;;;;;;;5.74;63.80;101267.72;5033370;28;20049;-67
2022/04/21 04:20:24;;;;;;;9.05;5.10;;;;;;;5.69;63.86;101264.25;5028610;28;20471;-67
2022/04/21 04:22:51;;;;;;;7.60;4.82;;;;;;;5.66;63.92;101265.97;5032278;28;20042;-68
2022/04/21 04:25:18;;;;;;;9.95;4.53;;;;;;;5.66;64.42;101268.59;5033414;28;20038;-67
2022/04/21 04:27:45;;;;;;;7.13;4.75;;;;;;;5.64;63.97;101266.00;5033145;28;20124;-68
2022/04/21 04:30:13;;;;;;;8.02;4.50;;;;;;;5.68;64.50;101264.25;5032116;28;20841;-70
2022/04/21 04:32:40;;;;;;;7.82;4.88;;;;;;;5.70;64.47;101265.97;5032606;28;20970;-68
2022/04/21 04:35:08;;;;;;;6.55;4.80;;;;;;;5.74;64.60;101270.31;5031742;28;20101;-69
2022/04/21 04:37:35;;;;;;;9.27;5.18;;;;;;;5.77;64.65;101261.59;5032609;28;20519;-69
2022/04/21 04:40:02;;;;;;;8.50;4.57;;;;;;;5.79;64.72;101264.22;5026819;28;20034;-69
2022/04/21 04:42:29;;;;;;;7.95;4.65;;;;;;;5.77;64.67;101261.59;5024610;28;20497;-70
2022/04/21 04:47:42;;;;;;;8.82;4.70;;;;;;;5.96;64.74;101272.88;5027886;28;20041;-68
2022/04/21 04:50:10;;;;;;;6.85;4.35;;;;;;;6.46;64.89;101270.88;5032502;28;20504;-69
2022/04/21 04:52:37;;;;;;;7.40;4.28;;;;;;;7.13;67.22;101276.50;5030579;28;20049;-69
2022/04/21 04:55:09;;;;;;;6.75;4.63;;;;;;;7.87;66.53;101274.00;5025878;28;20489;-68
2022/04/21 04:57:38;;;;;;;8.10;4.85;;;;;;;8.66;63.46;101263.28;5021012;28;20049;-69
2022/04/21 05:00:09;;;;;;;6.72;4.95;;;;;;;9.27;59.57;101270.16;5025080;28;20077;-68
2022/04/21 05:02:36;;;;;;;7.35;4.78;;;;;;;9.71;56.15;101264.97;5026377;28;20052;-69
2022/04/21 05:05:05;;;;;;;8.80;5.10;;;;;;;10.03;55.15;101259.03;5032275;28;20049;-69
2022/04/21 05:07:32;;;;;;;7.72;5.20;;;;;;;10.18;54.59;101267.50;5031285;28;20042;-70
2022/04/21 05:10:00;;;;;;;8.05;5.05;;;;;;;10.23;53.72;101261.22;5032539;28;20117;-68
2022/04/21 05:12:27;;;;;;;6.50;4.53;;;;;;;10.31;53.29;101268.13;5033340;28;20049;-68
2022/04/21 05:14:54;;;;;;;9.70;4.80;;;;;;;10.57;52.52;101265.78;5032492;28;20038;-68
2022/04/21 05:17:24;;;;;;;7.70;4.45;;;;;;;10.94;51.49;101263.13;5025925;28;20551;-68
2022/04/21 05:20:11;;;;;;;6.97;4.57;;;;;;;11.45;50.56;101246.84;5028753;28;20697;-69
2022/04/21 05:22:39;;;;;;;8.50;4.97;;;;;;;11.88;49.76;101255.34;5030045;28;20057;-70
2022/04/21 05:25:11;;;;;;;7.40;4.60;;;;;;;12.25;48.61;101246.31;5031662;28;20504;-69
2022/04/21 05:27:38;;;;;;;7.55;4.65;;;;;;;12.52;48.57;101245.50;5032636;28;20042;-69
2022/04/21 05:32:57;;;;;;;5.95;4.93;;;;;;;13.25;46.31;101254.56;5029431;28;20077;-68
2022/04/21 05:35:25;;;;;;;8.05;4.95;;;;;;;13.57;45.57;101252.56;5031145;28;20591;-68
2022/04/21 05:37:53;;;;;;;7.03;4.93;;;;;;;13.70;44.75;101244.16;5031118;28;20546;-66
2022/04/21 05:40:21;;;;;;;6.88;4.90;;;;;;;13.22;44.75;101253.81;5029120;28;20046;-68
2022/04/21 05:42:53;;;;;;;10.75;4.60;;;;;;;12.18;46.59;101241.25;5029332;28;20042;-68
2022/04/21 05:45:21;;;;;;;6.65;4.45;;;;;;;11.32;48.27;101246.31;5028824;28;20038;-68
2022/04/21 05:47:49;;;;;;;6.82;4.90;;;;;;;10.68;49.92;101248.81;5030118;28;20136;-68
2022/04/21 05:50:17;;;;;;;7.53;4.97;;;;;;;10.22;51.14;101258.63;5030618;28;20034;-67
2022/04/21 05:52:52;;;;;;;6.43;4.82;;;;;;;9.90;52.39;101249.66;5030199;28;20042;-67
2022/04/21 05:55:19;;;;;;;8.23;4.93;;;;;;;9.63;53.27;101249.31;5029290;28;20042;-68
2022/04/21 05:57:46;;;;;;;7.65;4.85;;;;;;;9.44;53.79;101252.31;5031740;28;20078;-68
2022/04/21 06:00:14;;;;;;;5.35;4.55;;;;;;;9.32;54.69;101250.75;5034843;28;20045;-68
2022/04/21 06:02:41;;;;;;;9.25;5.13;;;;;;;9.20;54.80;101251.00;5025919;28;20132;-66
2022/04/21 06:05:09;;;;;;;10.60;5.30;;;;;;;9.13;55.54;101249.38;5031875;28;20104;-67
2022/04/21 06:07:36;;;;;;;6.13;4.63;;;;;;;9.09;55.77;101255.59;5032129;28;20128;-67
2022/04/21 06:10:04;;;;;;;9.70;4.50;;;;;;;9.06;56.51;101253.00;5031670;28;20042;-68
2022/04/21 06:12:33;;;;;;;6.53;4.43;;;;;;;9.03;56.71;101259.19;5031829;28;20734;-67
2022/04/21 06:15:00;;;;;;;8.48;4.97;;;;;;;9.03;56.51;101253.94;5031712;28;20482;-68
2022/04/21 06:17:27;;;;;;;8.10;5.00;;;;;;;9.08;56.82;101257.34;5032403;28;20049;-68
2022/04/21 06:19:55;;;;;;;6.35;4.65;;;;;;;9.13;56.86;101247.63;5030172;28;20034;-68
2022/04/21 06:22:22;;;;;;;6.75;4.53;;;;;;;9.25;56.73;101251.78;5032094;28;20054;-68
2022/04/21 06:24:49;;;;;;;7.30;4.57;;;;;;;9.40;56.71;101253.25;5032277;28;20034;-68
2022/04/21 06:27:16;;;;;;;7.35;4.30;;;;;;;9.55;56.50;101248.63;5032558;28;20423;-67
2022/04/21 06:29:44;;;;;;;7.15;4.38;;;;;;;9.69;56.13;101243.94;5032094;28;20121;-68
2022/04/21 06:32:11;;;;;;;5.53;4.30;;;;;;;9.83;56.17;101241.00;5027750;28;20092;-69
2022/04/21 06:34:38;;;;;;;6.20;4.57;;;;;;;9.97;55.89;101240.72;5032807;28;20141;-67
2022/04/21 06:37:05;;;;;;;6.40;4.10;;;;;;;10.09;55.56;101237.81;5032299;28;20855;-69
2022/04/21 06:39:32;;;;;;;4.97;3.72;;;;;;;10.23;55.48;101239.28;5031710;28;20056;-68
2022/04/21 06:42:00;;;;;;;8.00;4.25;;;;;;;10.38;55.01;101235.47;5032539;28;20046;-67
2022/04/21 06:49:59;;;;;;;6.85;3.70;;;;;;;10.77;54.50;101238.06;5032592;28;20050;-67
2022/04/21 06:52:27;;;;;;;7.43;4.10;;;;;;;10.84;53.71;101234.34;5032703;28;20100;-67
2022/04/21 06:54:54;;;;;;;6.55;3.78;;;;;;;10.94;53.67;101237.63;5032895;28;20060;-68
2022/04/21 06:57:22;;;;;;;5.10;3.80;;;;;;;11.06;53.45;101241.72;5032573;28;20042;-67
2022/04/21 06:59:49;;;;;;;9.52;3.70;;;;;;;11.18;53.15;101238.75;5032002;28;20149;-68
2022/04/21 07:02:16;;;;;;;7.63;4.00;;;;;;;11.28;53.04;101241.16;5031819;28;20069;-67
2022/04/21 07:04:44;;;;;;;7.63;4.20;;;;;;;11.34;52.78;101238.38;5031641;28;20149;-70
2022/04/21 07:07:11;;;;;;;5.07;3.55;;;;;;;11.41;52.64;101229.38;5029816;28;20049;-67
2022/04/21 07:09:38;;;;;;;6.72;3.70;;;;;;;11.47;52.26;101229.19;5031343;28;20120;-67
2022/04/21 07:12:06;;;;;;;6.18;3.67;;;;;;;11.59;52.56;101241.19;5031958;28;20124;-69
2022/04/21 07:14:33;;;;;;;4.88;3.80;;;;;;;11.77;52.10;101242.41;5031172;28;20054;-68
2022/04/21 07:17:01;;;;;;;7.63;3.83;;;;;;;11.88;51.45;101241.25;5032170;28;20065;-69
2022/04/21 07:19:28;;;;;;;5.93;3.75;;;;;;;11.93;51.99;101234.91;5031650;28;20140;-68
2022/04/21 07:21:56;;;;;;;6.43;3.80;;;;;;;12.04;51.63;101246.97;5031568;28;20058;-69
2022/04/21 07:24:23;;;;;;;21.52;4.65;;;;;;;12.16;51.77;101245.75;5031314;28;20076;-69
2022/04/21 07:26:50;;;;;;;7.20;4.15;;;;;;;12.31;51.60;101236.50;5032840;28;20502;-68
2022/04/21 07:29:17;;;;;;;6.30;4.18;;;;;;;12.48;50.87;101241.22;5035174;28;20046;-69
2022/04/21 07:31:46;;;;;;;5.43;3.72;;;;;;;12.62;50.58;101246.06;5035066;28;20046;-69
2022/04/21 07:34:13;;;;;;;6.47;4.07;;;;;;;12.68;50.03;101238.78;5034851;28;20599;-67
2022/04/21 07:36:42;;;;;;;4.53;3.53;;;;;;;12.77;50.13;101239.44;5035001;28;20066;-68
2022/04/21 07:39:09;;;;;;;6.55;3.65;;;;;;;12.82;49.81;101238.34;5015810;28;20127;-69
2022/04/21 07:41:37;;;;;;;5.68;3.72;;;;;;;12.93;49.67;101245.06;5020885;28;20050;-70
2022/04/21 07:44:04;;;;;;;8.88;3.92;;;;;;;13.03;49.46;101247.34;5033484;28;20089;-69
2022/04/21 07:46:32;;;;;;;6.88;3.78;;;;;;;13.07;49.05;101245.47;5034142;28;20046;-69
2022/04/21 07:51:46;;;;;;;8.80;3.85;;;;;;;12.99;48.40;101251.00;5033846;28;20038;-70
2022/04/21 07:54:13;;;;;;;10.32;4.22;;;;;;;13.05;49.23;101248.16;5033630;28;20495;-69
2022/04/21 07:56:40;;;;;;;4.95;3.70;;;;;;;13.16;48.38;101245.13;5032755;28;20128;-69
2022/04/21 07:59:08;;;;;;;4.57;3.40;;;;;;;13.26;47.34;101251.00;5034102;28;20124;-69
2022/04/21 08:01:35;;;;;;;6.65;3.55;;;;;;;13.27;46.00;101254.50;5034415;28;20046;-68
2022/04/21 08:04:03;;;;;;;4.38;3.50;;;;;;;13.28;46.02;101251.78;5034672;28;20538;-68
2022/04/21 08:06:30;;;;;;;6.28;3.53;;;;;;;13.31;45.62;101248.19;5034573;28;20042;-69
2022/04/21 08:08:57;;;;;;;4.97;3.45;;;;;;;13.39;46.05;101246.16;5034605;28;20516;-69
2022/04/21 08:11:24;;;;;;;7.43;3.40;;;;;;;13.47;46.15;101249.38;5034721;28;20048;-69
2022/04/21 08:13:51;;;;;;;4.07;2.90;;;;;;;13.59;44.94;101248.06;5033719;28;20038;-69
2022/04/21 08:16:18;;;;;;;5.65;3.33;;;;;;;13.66;45.20;101249.59;5034719;28;20452;-69
2022/04/21 08:18:52;;;;;;;5.63;3.10;;;;;;;13.75;44.74;101242.22;5034481;28;20124;-70
2022/04/21 08:21:19;;;;;;;5.30;3.28;;;;;;;13.82;44.28;101234.00;5034785;28;20076;-69
2022/04/21 08:33:04;;;;;;;4.97;3.40;;;;;;;14.04;44.06;101240.25;5034065;28;20074;-69
2022/04/21 08:35:32;;;;;;;4.68;3.00;;;;;;;14.17;43.97;101244.16;5034263;28;20038;-70
2022/04/21 08:38:00;;;;;;;4.50;2.80;;;;;;;14.35;44.26;101231.09;5034144;28;20048;-69
2022/04/21 08:40:30;;;;;;;4.93;2.58;;;;;;;14.53;43.25;101230.34;5033924;28;20578;-69
2022/04/21 08:43:00;;;;;;;3.90;2.13;;;;;;;14.64;40.31;101239.66;5023471;28;20050;-69
2022/04/21 08:45:30;;;;;;;3.67;2.40;;;;;;;14.69;40.39;101245.69;5014301;28;20047;-69
2022/04/21 08:47:59;;;;;;;2.95;2.45;;;;;;;14.71;40.82;101235.84;5014551;28;20039;-68
2022/04/21 08:50:27;;;;;;;2.70;2.30;;;;;;;14.77;40.58;101232.97;5014484;28;20544;-69
2022/04/21 08:52:56;;;;;;;4.72;2.33;;;;;;;14.86;39.50;101227.25;5013613;28;20177;-70
2022/04/21 08:55:23;;;;;;;4.35;2.20;;;;;;;14.93;38.83;101234.94;5014570;28;20046;-68
2022/04/21 08:57:52;;;;;;;4.93;1.90;;;;;;;14.91;39.07;101230.56;5024452;28;20069;-71
2022/04/21 09:00:19;;;;;;;2.97;1.70;;;;;;;14.99;38.08;101232.91;5033526;28;20050;-69
2022/04/21 09:02:48;;;;;;;3.03;1.80;;;;;;;15.09;37.33;101235.16;5033750;28;20089;-69
2022/04/21 09:05:15;;;;;;;3.58;1.90;;;;;;;15.21;37.53;101224.84;5033778;28;20116;-70
2022/04/21 09:07:46;;;;;;;2.80;2.00;;;;;;;15.26;36.72;101229.97;5033864;28;20550;-69
2022/04/21 09:10:33;;;;;;;3.97;2.08;;;;;;;15.25;37.78;101222.09;5033966;28;20335;-70
2022/04/21 09:13:03;;;;;;;5.38;2.58;;;;;;;15.41;38.13;101217.84;5032630;28;20138;-69
2022/04/21 09:15:33;;;;;;;2.88;1.67;;;;;;;15.56;37.10;101221.59;5034273;28;20149;-69
2022/04/21 09:18:07;;;;;;;1.98;1.77;;;;;;;15.62;36.31;101221.31;5033288;28;20145;-69
2022/04/21 09:20:36;;;;;;;3.40;2.00;;;;;;;15.66;36.25;101224.69;5033993;28;20523;-70
2022/04/21 09:23:10;;;;;;;3.08;1.77;;;;;;;15.64;35.94;101213.25;5033811;28;20136;-69
2022/04/21 09:25:50;;;;;;;3.58;1.70;;;;;;;15.64;35.79;101219.44;5033688;28;20830;-70
2022/04/21 09:28:25;;;;;;;3.55;1.80;;;;;;;15.65;35.71;101210.53;5031488;28;20037;-70
2022/04/21 09:30:56;;;;;;;4.40;1.90;;;;;;;15.71;34.84;101206.75;5032956;28;20081;-68
2022/04/21 09:33:35;;;;;;;2.53;1.92;;;;;;;15.66;34.83;101201.63;5033257;28;20116;-68
2022/04/21 09:36:08;;;;;;;3.17;2.08;;;;;;;15.71;35.70;101204.09;5033452;28;20048;-70
2022/04/21 09:38:37;;;;;;;2.10;1.85;;;;;;;15.86;35.57;101199.00;5033519;28;20053;-70
2022/04/21 09:41:13;;;;;;;3.22;2.00;;;;;;;15.99;35.22;101195.69;5032923;28;20096;-70
2022/04/21 09:43:42;;;;;;;3.97;1.88;;;;;;;16.09;35.73;101193.47;5029716;28;20037;-69
2022/04/21 09:46:23;;;;;;;4.78;1.92;;;;;;;16.18;34.86;101193.97;5032833;28;20053;-69
2022/04/21 09:48:54;;;;;;;5.10;2.08;;;;;;;16.24;34.15;101193.66;5031858;28;20579;-70
2022/04/21 09:51:27;;;;;;;1.70;1.42;;;;;;;16.34;33.00;101191.41;5033242;28;20049;-70
2022/04/21 09:54:04;;;;;;;2.40;1.33;;;;;;;16.41;31.87;101192.81;5032007;28;20050;-70
2022/04/21 09:56:39;;;;;;;2.50;1.50;;;;;;;16.45;32.73;101189.09;5033065;28;20149;-70
2022/04/21 09:59:12;;;;;;;2.45;1.52;;;;;;;16.61;32.77;101184.72;5031230;28;20186;-71
2022/04/21 10:01:42;;;;;;;3.33;1.90;;;;;;;16.79;33.05;101187.38;5032172;28;20057;-70
2022/04/21 10:04:13;;;;;;;3.55;2.00;;;;;;;16.93;33.56;101176.03;5033032;28;20053;-70
2022/04/21 10:06:43;;;;;;;2.50;1.65;;;;;;;16.92;32.34;101179.63;5032680;28;20120;-71
2022/04/21 10:09:12;;;;;;;3.42;2.15;;;;;;;16.79;33.03;101166.06;5033321;28;20044;-68
2022/04/21 10:11:44;;;;;;;3.72;1.98;;;;;;;16.90;33.76;101163.72;5031543;28;20098;-69
2022/04/21 10:14:15;;;;;;;4.82;1.88;;;;;;;17.16;33.08;101158.88;5032296;28;20049;-69
2022/04/21 10:16:45;;;;;;;1.60;1.50;;;;;;;17.19;31.39;101163.19;5032924;28;20057;-69
2022/04/21 10:19:19;;;;;;;2.10;1.70;;;;;;;17.17;32.73;101159.72;5033044;28;20041;-69
2022/04/21 10:22:03;;;;;;;2.92;1.70;;;;;;;17.22;31.32;101155.03;5032138;28;20033;-69
2022/04/21 10:24:34;;;;;;;6.45;2.20;;;;;;;17.29;31.53;101151.09;5032437;28;20050;-71
2022/04/21 10:27:03;;;;;;;3.35;1.60;;;;;;;17.36;30.71;101147.13;5032121;28;20057;-69
2022/04/21 10:29:30;;;;;;;4.03;1.90;;;;;;;17.39;30.84;101151.47;5028204;28;20064;-69
2022/04/21 10:32:01;;;;;;;5.22;1.80;;;;;;;17.39;30.27;101140.81;5032942;28;20038;-70
2022/04/21 10:34:44;;;;;;;3.70;1.83;;;;;;;17.33;30.92;101147.31;5031476;28;20053;-70
2022/04/21 10:37:17;;;;;;;5.70;1.83;;;;;;;17.53;31.56;101135.56;5032285;28;20459;-70
2022/04/21 10:40:10;;;;;;;5.00;1.70;;;;;;;17.86;30.81;101128.44;5017640;28;20050;-71
2022/04/21 10:42:57;;;;;;;2.90;1.60;;;;;;;18.04;29.26;101126.56;5047568;28;20079;-69
2022/04/21 10:45:31;;;;;;;2.60;1.60;;;;;;;17.99;29.69;101136.66;5031177;28;20106;-70
2022/04/21 10:48:08;;;;;;;2.08;1.58;;;;;;;18.07;29.88;101139.72;5032716;28;20045;-70
2022/04/21 10:50:39;;;;;;;4.15;1.50;;;;;;;18.22;29.25;101130.00;5032503;28;20045;-69
2022/04/21 10:59:08;;;;;;;3.15;1.40;;;;;;;17.95;29.45;101119.06;5030982;28;20113;-70
2022/04/21 11:01:35;;;;;;;2.60;1.50;;;;;;;18.00;29.07;101123.22;5030713;28;20049;-69
2022/04/21 11:04:09;;;;;;;6.53;1.52;;;;;;;18.14;29.82;101118.91;5032111;28;20049;-71
2022/04/21 11:06:49;;;;;;;4.07;1.67;;;;;;;18.30;29.44;101103.72;5031831;28;20113;-70
2022/04/21 11:09:50;;;;;;;2.33;1.60;;;;;;;18.41;28.94;101108.44;5029024;28;20479;-70
2022/04/21 11:12:44;;;;;;;4.95;1.65;;;;;;;18.41;27.82;101108.44;5013114;28;20114;-70
2022/04/21 11:15:54;;;;;;;4.10;2.08;;;;;;;18.45;28.48;101106.44;5022111;28;20046;-70
2022/04/21 11:18:31;;;;;;;2.38;1.83;;;;;;;18.71;28.72;101109.34;5031038;28;20038;-71
2022/04/21 11:21:26;;;;;;;5.35;1.90;;;;;;;18.88;28.41;101106.50;5031116;28;20048;-70
2022/04/21 11:23:53;;;;;;;2.97;1.80;;;;;;;19.23;28.60;101092.81;5022973;28;20042;-69
2022/04/21 11:26:30;;;;;;;6.35;1.73;;;;;;;19.44;27.59;101105.75;5031129;28;20045;-69
2022/04/21 11:29:03;;;;;;;4.53;2.30;;;;;;;19.46;27.48;101090.50;5017977;28;20523;-70
2022/04/21 11:31:32;;;;;;;4.22;2.03;;;;;;;19.48;27.86;101091.25;5016662;28;20129;-71
2022/04/21 11:34:03;;;;;;;5.10;1.90;;;;;;;19.23;28.39;101098.16;5020054;28;20058;-70
2022/04/21 11:36:40;;;;;;;3.90;1.85;;;;;;;19.05;28.22;101093.97;5029242;28;20049;-69
2022/04/21 11:39:08;;;;;;;4.28;2.10;;;;;;;18.73;28.91;101094.94;5031461;28;20046;-71
2022/04/21 11:41:44;;;;;;;4.13;1.63;;;;;;;18.36;29.61;101090.97;5031192;28;20829;-69
2022/04/21 11:44:21;;;;;;;4.82;1.90;;;;;;;18.22;30.38;101099.75;5030670;28;20053;-70
2022/04/21 11:46:49;;;;;;;5.85;2.00;;;;;;;18.13;30.70;101087.84;5027977;28;20046;-70
2022/04/21 11:49:17;;;;;;;3.78;2.05;;;;;;;18.04;30.93;101086.56;5029597;28;20058;-70
2022/04/21 11:51:44;;;;;;;4.32;2.08;;;;;;;18.05;30.41;101090.09;5030275;28;20047;-72
2022/04/21 11:54:13;;;;;;;6.45;1.90;;;;;;;18.15;30.87;101085.94;5031049;28;20038;-70
2022/04/21 11:56:40;;;;;;;2.78;1.98;;;;;;;18.29;30.33;101093.97;5031562;28;20042;-69
2022/04/21 11:59:09;;;;;;;5.13;2.20;;;;;;;18.32;30.16;101082.25;5016248;28;20546;-71
2022/04/21 12:07:17;;;;;;;3.03;2.17;;;;;;;18.58;29.54;101078.03;5012405;28;20429;-69
2022/04/21 12:09:46;;;;;;;7.15;1.70;;;;;;;18.66;28.98;101079.41;5015226;28;20486;-69
2022/04/21 12:12:18;;;;;;;2.63;1.83;;;;;;;18.58;29.03;101075.38;5032661;28;20042;-70
2022/04/21 12:14:45;;;;;;;7.18;2.03;;;;;;;18.53;29.16;101069.47;5035023;28;20104;-70
2022/04/21 12:17:12;;;;;;;5.50;1.98;;;;;;;18.43;29.25;101057.63;5033769;28;20045;-69
2022/04/21 12:19:44;;;;;;;2.85;1.90;;;;;;;18.34;29.68;101066.19;5034932;28;20092;-70
2022/04/21 12:22:17;;;;;;;4.80;2.30;;;;;;;18.45;28.89;101067.25;5032169;28;20093;-70
2022/04/21 12:24:49;;;;;;;4.75;2.03;;;;;;;18.62;29.11;101068.03;5027971;28;20052;-70
2022/04/21 12:27:22;;;;;;;5.15;2.28;;;;;;;18.67;28.73;101065.09;5029994;28;20135;-69
2022/04/21 12:29:52;;;;;;;3.20;2.07;;;;;;;18.54;28.64;101059.63;5029863;28;20038;-71